createdAt,value
2023-07-16T00:01:59.782Z,65.06
2023-07-16T00:06:01.652Z,64.82
2023-07-16T00:10:03.812Z,64.52
2023-07-16T00:14:06.335Z,64.37
2023-07-16T00:18:08.213Z,63.86
2023-07-16T00:22:10.145Z,63.94
2023-07-16T00:26:15.207Z,63.94
2023-07-16T00:30:17.364Z,63.85
2023-07-16T00:34:19.286Z,63.57
2023-07-16T00:38:21.406Z,63.38
2023-07-16T00:42:23.269Z,63.76
2023-07-16T00:46:26.172Z,63.65
2023-07-16T00:50:28.945Z,63.57
2023-07-16T00:54:34.002Z,63.38
2023-07-16T00:58:36.303Z,63.77
2023-07-16T01:02:38.626Z,63.56
2023-07-16T01:06:49.342Z,63.90
2023-07-16T01:10:51.442Z,63.58
2023-07-16T01:14:53.894Z,63.49
2023-07-16T01:18:55.714Z,63.78
2023-07-16T01:23:20.396Z,64.25
2023-07-16T01:27:53.290Z,64.11
2023-07-16T01:31:57.122Z,64.75
2023-07-16T01:36:00.656Z,64.40
2023-07-16T01:40:04.653Z,65.00
2023-07-16T01:44:06.574Z,65.14
2023-07-16T01:48:25.613Z,65.25
2023-07-16T01:52:28.572Z,65.11
2023-07-16T01:56:32.172Z,65.02
2023-07-16T02:00:34.090Z,65.22
2023-07-16T02:04:35.986Z,64.80
2023-07-16T02:08:37.821Z,64.98
2023-07-16T02:12:39.765Z,65.06
2023-07-16T02:16:41.841Z,65.27
2023-07-16T02:20:45.200Z,65.18
2023-07-16T02:24:47.088Z,65.39
2023-07-16T02:28:49.236Z,65.08
2023-07-16T02:32:51.287Z,65.29
2023-07-16T02:36:53.281Z,65.54
2023-07-16T02:40:55.536Z,65.75
2023-07-16T02:44:57.452Z,65.99
2023-07-16T02:48:59.439Z,66.29
2023-07-16T02:53:01.272Z,66.67
2023-07-16T02:57:03.555Z,66.45
2023-07-16T03:01:05.468Z,66.40
2023-07-16T03:05:07.524Z,66.84
2023-07-16T03:09:10.349Z,66.69
2023-07-16T03:13:12.205Z,67.07
2023-07-16T03:17:14.681Z,67.40
2023-07-16T03:21:16.707Z,67.52
2023-07-16T03:25:19.378Z,67.39
2023-07-16T03:29:21.363Z,67.75
2023-07-16T03:33:23.453Z,67.79
2023-07-16T03:37:25.473Z,67.72
2023-07-16T03:41:27.560Z,67.92
2023-07-16T03:45:29.545Z,68.22
2023-07-16T03:49:31.447Z,68.15
2023-07-16T03:53:33.318Z,68.60
2023-07-16T03:57:35.158Z,68.23
2023-07-16T04:01:37.077Z,68.37
2023-07-16T04:05:38.997Z,69.05
2023-07-16T04:09:41.950Z,69.30
2023-07-16T04:13:43.890Z,69.56
2023-07-16T04:17:45.771Z,69.36
2023-07-16T04:21:47.641Z,69.57
2023-07-16T04:25:54.333Z,69.40
2023-07-16T04:29:56.264Z,68.80
2023-07-16T04:33:58.235Z,68.85
2023-07-16T04:38:00.136Z,68.49
2023-07-16T04:42:02.022Z,68.67
2023-07-16T04:46:04.247Z,68.46
2023-07-16T04:50:07.276Z,68.31
2023-07-16T04:54:09.161Z,68.37
2023-07-16T04:58:13.041Z,67.89
2023-07-16T05:02:16.730Z,68.16
2023-07-16T05:06:18.883Z,67.54
2023-07-16T05:10:20.960Z,67.24
2023-07-16T05:14:22.828Z,66.23
2023-07-16T05:18:24.882Z,65.90
2023-07-16T05:22:26.754Z,65.52
2023-07-16T05:26:28.657Z,65.13
2023-07-16T05:30:30.486Z,64.53
2023-07-16T05:34:32.351Z,63.65
2023-07-16T05:38:34.146Z,63.91
2023-07-16T05:42:36.517Z,63.12
2023-07-16T05:46:38.493Z,63.57
2023-07-16T05:50:40.382Z,63.28
2023-07-16T05:54:45.138Z,63.88
2023-07-16T05:58:47.041Z,64.25
2023-07-16T06:02:48.868Z,63.88
2023-07-16T06:06:53.018Z,64.19
2023-07-16T06:10:55.173Z,64.04
2023-07-16T06:14:57.008Z,63.80
2023-07-16T06:18:58.928Z,63.38
2023-07-16T06:23:00.996Z,63.16
2023-07-16T06:27:03.030Z,62.98
2023-07-16T06:31:04.942Z,62.50
2023-07-16T06:35:07.104Z,62.15
2023-07-16T06:39:08.989Z,62.38
2023-07-16T06:43:10.818Z,62.98
2023-07-16T06:47:12.774Z,63.00
2023-07-16T06:51:14.689Z,63.66
2023-07-16T06:55:16.540Z,64.05
2023-07-16T06:59:18.417Z,63.46
2023-07-16T07:03:20.274Z,63.79
2023-07-16T07:07:22.219Z,64.11
2023-07-16T07:11:24.093Z,63.69
2023-07-16T07:15:25.915Z,63.66
2023-07-16T07:19:28.458Z,63.52
2023-07-16T07:23:30.456Z,63.36
2023-07-16T07:27:32.600Z,63.23
2023-07-16T07:31:34.522Z,62.79
2023-07-16T07:35:36.425Z,62.71
2023-07-16T07:39:38.510Z,63.05
2023-07-16T07:43:40.341Z,63.08
2023-07-16T07:47:42.896Z,63.46
2023-07-16T07:51:44.825Z,63.64
2023-07-16T07:55:47.224Z,63.77
2023-07-16T07:59:49.161Z,63.11
2023-07-16T08:03:51.071Z,63.37
2023-07-16T08:07:53.616Z,63.31
2023-07-16T08:11:55.578Z,62.90
2023-07-16T08:15:57.458Z,63.08
2023-07-16T08:19:59.427Z,63.30
2023-07-16T08:24:01.281Z,63.31
2023-07-16T08:28:06.395Z,63.34
2023-07-16T08:32:08.885Z,63.68
2023-07-16T08:36:11.514Z,63.73
2023-07-16T08:40:14.304Z,63.62
2023-07-16T08:44:16.765Z,63.35
2023-07-16T08:48:21.553Z,62.96
2023-07-16T08:52:24.194Z,63.26
2023-07-16T08:56:26.464Z,62.93
2023-07-16T09:00:28.662Z,62.70
2023-07-16T09:04:31.193Z,62.78
2023-07-16T09:08:33.090Z,62.72
2023-07-16T09:12:34.951Z,62.92
2023-07-16T09:16:36.789Z,62.35
2023-07-16T09:20:40.947Z,62.45
2023-07-16T09:24:48.598Z,62.39
2023-07-16T09:28:50.690Z,62.44
2023-07-16T09:32:52.823Z,62.65
2023-07-16T09:36:54.720Z,62.34
2023-07-16T09:40:57.749Z,61.90
2023-07-16T09:45:01.989Z,62.12
2023-07-16T09:49:04.026Z,62.17
2023-07-16T09:53:06.339Z,62.43
2023-07-16T09:57:10.002Z,62.41
2023-07-16T10:01:12.468Z,62.30
2023-07-16T10:05:19.160Z,61.76
2023-07-16T10:09:43.621Z,61.17
2023-07-16T10:13:51.983Z,60.90
2023-07-16T10:17:54.291Z,60.66
2023-07-16T10:21:56.148Z,59.98
2023-07-16T10:26:02.311Z,58.16
2023-07-16T10:30:07.533Z,57.08
2023-07-16T10:34:10.149Z,57.03
2023-07-16T10:38:13.937Z,56.26
2023-07-16T10:42:18.777Z,55.13
2023-07-16T10:46:21.988Z,53.94
2023-07-16T10:50:24.167Z,54.10
2023-07-16T10:54:28.871Z,54.49
2023-07-16T10:58:30.752Z,53.53
2023-07-16T11:02:32.711Z,53.47
2023-07-16T11:06:34.707Z,51.88
2023-07-16T11:10:36.589Z,51.97
2023-07-16T11:14:39.331Z,51.98
2023-07-16T11:18:43.311Z,52.46
2023-07-16T11:22:48.150Z,52.84
2023-07-16T11:26:53.671Z,53.67
2023-07-16T11:30:55.636Z,53.84
2023-07-16T11:34:58.593Z,52.37
2023-07-16T11:39:00.812Z,52.30
2023-07-16T11:43:28.688Z,52.22
2023-07-16T11:47:31.043Z,51.61
2023-07-16T11:51:32.999Z,51.43
2023-07-16T11:55:35.005Z,51.45
2023-07-16T11:59:36.915Z,51.22
2023-07-16T12:03:38.803Z,51.29
2023-07-16T12:07:40.888Z,51.28
2023-07-16T12:11:42.721Z,50.85
2023-07-16T12:15:44.675Z,49.40
2023-07-16T12:19:46.507Z,49.61
2023-07-16T12:23:48.323Z,49.93
2023-07-16T12:27:53.775Z,49.99
2023-07-16T12:31:57.735Z,50.93
2023-07-16T12:35:59.558Z,51.56
2023-07-16T12:40:03.577Z,51.85
2023-07-16T12:44:05.457Z,52.04
2023-07-16T12:48:07.496Z,51.88
2023-07-16T12:52:09.739Z,52.13
2023-07-16T12:56:11.594Z,52.37
2023-07-16T13:00:13.685Z,52.86
2023-07-16T13:04:15.514Z,52.20
2023-07-16T13:08:20.304Z,51.30
2023-07-16T13:12:22.163Z,50.83
2023-07-16T13:16:24.122Z,50.74
2023-07-16T13:20:26.126Z,50.78
2023-07-16T13:24:28.017Z,50.16
2023-07-16T13:28:29.892Z,50.27
2023-07-16T13:32:31.860Z,50.59
2023-07-16T13:36:33.849Z,50.85
2023-07-16T13:40:35.681Z,50.42
2023-07-16T13:44:37.509Z,50.33
2023-07-16T13:48:55.847Z,50.21
2023-07-16T13:52:58.246Z,49.96
2023-07-16T13:57:00.164Z,50.95
2023-07-16T14:01:02.117Z,51.11
2023-07-16T14:05:04.177Z,51.99
2023-07-16T14:09:06.607Z,52.33
2023-07-16T14:13:08.465Z,52.25
2023-07-16T14:17:10.410Z,52.41
2023-07-16T14:21:12.367Z,52.82
2023-07-16T14:25:14.264Z,52.71
2023-07-16T14:29:16.555Z,52.42
2023-07-16T14:33:25.104Z,52.33
2023-07-16T14:37:27.077Z,52.70
2023-07-16T14:41:28.970Z,52.83
2023-07-16T14:45:30.984Z,52.90
2023-07-16T14:49:33.060Z,52.83
2023-07-16T14:53:34.871Z,52.91
2023-07-16T14:57:36.989Z,53.13
2023-07-16T15:01:40.316Z,53.35
2023-07-16T15:05:42.374Z,53.52
2023-07-16T15:09:44.188Z,53.96
2023-07-16T15:13:46.101Z,54.04
2023-07-16T15:17:47.979Z,53.75
2023-07-16T15:21:49.967Z,53.52
2023-07-16T15:25:51.928Z,53.78
2023-07-16T15:29:53.934Z,53.07
2023-07-16T15:33:56.570Z,53.29
2023-07-16T15:38:00.660Z,53.54
2023-07-16T15:42:02.859Z,53.77
2023-07-16T15:46:04.834Z,53.53
2023-07-16T15:50:07.084Z,53.52
2023-07-16T15:54:09.123Z,53.55
2023-07-16T15:58:10.970Z,53.23
2023-07-16T16:02:12.822Z,52.94
2023-07-16T16:06:14.939Z,52.61
2023-07-16T16:10:17.832Z,52.21
2023-07-16T16:14:19.697Z,52.24
2023-07-16T16:18:22.009Z,51.38
2023-07-16T16:22:23.972Z,50.74
2023-07-16T16:26:25.829Z,49.71
2023-07-16T16:30:27.798Z,49.22
2023-07-16T16:34:29.964Z,48.75
2023-07-16T16:38:31.821Z,47.73
2023-07-16T16:42:33.835Z,47.44
2023-07-16T16:46:35.870Z,47.45
2023-07-16T16:50:38.545Z,47.27
2023-07-16T16:54:40.755Z,47.23
2023-07-16T16:58:42.637Z,47.37
2023-07-16T17:02:44.757Z,47.67
2023-07-16T17:06:46.665Z,47.84
2023-07-16T17:10:48.575Z,48.37
2023-07-16T17:14:50.525Z,48.95
2023-07-16T17:18:52.662Z,49.60
2023-07-16T17:22:54.510Z,49.90
2023-07-16T17:26:56.511Z,50.54
2023-07-16T17:31:00.623Z,50.50
2023-07-16T17:35:02.835Z,51.16
2023-07-16T17:39:04.744Z,51.67
2023-07-16T17:43:06.640Z,51.41
2023-07-16T17:47:08.703Z,51.30
2023-07-16T17:51:10.700Z,51.86
2023-07-16T17:55:12.587Z,52.02
2023-07-16T17:59:14.753Z,51.80
2023-07-16T18:03:16.921Z,52.60
2023-07-16T18:07:22.824Z,52.91
2023-07-16T18:11:24.938Z,53.08
2023-07-16T18:15:26.852Z,53.41
2023-07-16T18:19:29.339Z,53.43
2023-07-16T18:23:31.697Z,53.67
2023-07-16T18:27:34.651Z,53.77
2023-07-16T18:31:36.602Z,54.47
2023-07-16T18:35:38.625Z,54.14
2023-07-16T18:39:40.538Z,54.44
2023-07-16T18:43:43.403Z,54.66
2023-07-16T18:47:45.345Z,54.47
2023-07-16T18:51:49.204Z,55.04
2023-07-16T18:55:51.039Z,55.41
2023-07-16T18:59:53.299Z,55.32
2023-07-16T19:03:55.663Z,55.22
2023-07-16T19:07:58.088Z,55.05
2023-07-16T19:11:59.945Z,55.44
2023-07-16T19:16:01.915Z,55.29
2023-07-16T19:20:05.551Z,56.09
2023-07-16T19:24:07.430Z,55.90
2023-07-16T19:28:09.739Z,56.18
2023-07-16T19:32:11.582Z,56.53
2023-07-16T19:36:14.972Z,56.97
2023-07-16T19:40:17.130Z,56.29
2023-07-16T19:44:18.920Z,56.64
2023-07-16T19:48:20.791Z,56.87
2023-07-16T19:52:22.603Z,56.94
2023-07-16T19:56:24.618Z,57.30
2023-07-16T20:00:28.362Z,57.57
2023-07-16T20:04:30.451Z,57.82
2023-07-16T20:08:32.381Z,57.98
2023-07-16T20:12:36.277Z,58.31
2023-07-16T20:16:40.519Z,58.31
2023-07-16T20:20:43.909Z,58.66
2023-07-16T20:24:45.721Z,59.61
2023-07-16T20:28:47.702Z,59.61
2023-07-16T20:32:49.599Z,59.94
2023-07-16T20:36:51.545Z,60.15
2023-07-16T20:40:53.404Z,60.52
2023-07-16T20:45:19.196Z,61.09
2023-07-16T20:49:21.091Z,60.97
2023-07-16T20:53:23.040Z,61.31
2023-07-16T20:57:24.865Z,61.89
2023-07-16T21:01:26.901Z,61.99
2023-07-16T21:05:29.660Z,62.59
2023-07-16T21:09:31.537Z,62.91
2023-07-16T21:13:33.492Z,62.97
2023-07-16T21:17:35.396Z,63.21
2023-07-16T21:21:37.291Z,63.56
2023-07-16T21:25:39.554Z,63.64
2023-07-16T21:29:41.380Z,64.46
2023-07-16T21:33:43.249Z,64.76
2023-07-16T21:37:45.240Z,64.89
2023-07-16T21:41:47.317Z,64.89
2023-07-16T21:45:49.219Z,64.76
2023-07-16T21:49:52.001Z,64.97
2023-07-16T21:53:53.837Z,65.11
2023-07-16T21:57:55.724Z,66.13
2023-07-16T22:01:58.112Z,67.18
2023-07-16T22:05:59.963Z,67.88
2023-07-16T22:10:01.838Z,68.48
2023-07-16T22:14:07.645Z,68.17
2023-07-16T22:18:09.627Z,68.56
2023-07-16T22:22:11.581Z,68.88
2023-07-16T22:26:14.029Z,68.85
2023-07-16T22:30:16.320Z,69.19
2023-07-16T22:34:18.242Z,69.40
2023-07-16T22:38:20.142Z,69.78
2023-07-16T22:42:22.425Z,70.43
2023-07-16T22:46:24.345Z,70.37
2023-07-16T22:50:26.258Z,70.55
2023-07-16T22:54:28.144Z,71.42
2023-07-16T22:58:30.012Z,71.68
2023-07-16T23:02:31.958Z,71.96
2023-07-16T23:06:34.033Z,72.17
2023-07-16T23:10:35.907Z,72.51
2023-07-16T23:14:41.503Z,72.18
2023-07-16T23:18:43.344Z,72.61
2023-07-16T23:22:45.257Z,72.47
2023-07-16T23:26:47.108Z,72.99
2023-07-16T23:30:49.041Z,72.84
2023-07-16T23:34:51.184Z,72.54
2023-07-16T23:38:53.016Z,72.51
2023-07-16T23:42:54.912Z,72.15
2023-07-16T23:46:57.983Z,72.49
2023-07-16T23:50:59.991Z,72.24
2023-07-16T23:55:04.366Z,72.08
2023-07-16T23:59:06.211Z,72.30
